Time;durP1;ratioP1;P1;durP2;ratioP2;P2;SDS_P1;SDS_P2;PMS_P1;PMS_P2;Temp;Humidity;BMP_temperature;BMP_pressure;BME280_temperature;BME280_humidity;BME280_pressure;Samples;Min_cycle;Max_cycle;Signal;HPM_P1;HPM_P2
2021/05/20 00:02:24;;;;;;;0.30;0.30;;;10.30;99.90;;;;;;5111847;28;20189;-70
2021/05/20 00:04:50;;;;;;;0.20;0.20;;;10.30;99.90;;;;;;5093682;28;20187;-70
2021/05/20 00:07:16;;;;;;;0.10;0.10;;;10.30;99.90;;;;;;5092293;28;20185;-69
2021/05/20 00:09:42;;;;;;;0.10;0.10;;;10.30;99.90;;;;;;5111693;28;20159;-70
2021/05/20 00:12:09;;;;;;;0.10;0.10;;;10.20;99.90;;;;;;5111574;28;20155;-70
2021/05/20 00:14:35;;;;;;;0.10;0.10;;;10.20;99.90;;;;;;5111779;28;20182;-70
2021/05/20 00:17:01;;;;;;;0.10;0.10;;;10.20;99.90;;;;;;5111302;28;20187;-70
2021/05/20 00:19:27;;;;;;;0.10;0.10;;;10.20;99.90;;;;;;5093255;28;20209;-70
2021/05/20 00:21:53;;;;;;;0.10;0.10;;;10.20;99.90;;;;;;5111530;28;20219;-70
2021/05/20 00:24:19;;;;;;;0.10;0.10;;;10.20;99.90;;;;;;5111281;28;20190;-70
2021/05/20 00:26:45;;;;;;;0.10;0.10;;;10.30;99.90;;;;;;5111418;28;20160;-70
2021/05/20 00:29:11;;;;;;;0.20;0.20;;;10.40;99.90;;;;;;5111369;28;20188;-70
2021/05/20 00:31:37;;;;;;;0.20;0.20;;;10.50;99.90;;;;;;5110758;28;20168;-70
2021/05/20 00:34:05;;;;;;;0.10;0.10;;;10.50;99.90;;;;;;5110714;28;20198;-70
2021/05/20 00:36:31;;;;;;;0.10;0.10;;;10.40;99.90;;;;;;5092307;28;20737;-70
2021/05/20 00:38:57;;;;;;;1.35;1.20;;;10.40;99.90;;;;;;5110831;28;20151;-70
2021/05/20 00:41:23;;;;;;;0.10;0.10;;;10.40;99.90;;;;;;5110727;28;20211;-69
2021/05/20 00:43:49;;;;;;;0.10;0.10;;;10.40;99.90;;;;;;5092646;28;20191;-70
2021/05/20 00:46:15;;;;;;;0.10;0.10;;;10.40;99.90;;;;;;5086321;28;20258;-69
2021/05/20 00:48:42;;;;;;;0.10;0.10;;;10.40;99.90;;;;;;5072700;28;20222;-70
2021/05/20 00:51:08;;;;;;;0.08;0.08;;;10.30;99.90;;;;;;5072420;28;20227;-70
2021/05/20 00:53:34;;;;;;;0.10;0.10;;;10.40;99.90;;;;;;5090476;28;20231;-70
2021/05/20 00:56:00;;;;;;;0.10;0.10;;;10.50;99.90;;;;;;5072368;28;20168;-71
2021/05/20 00:58:26;;;;;;;0.10;0.10;;;10.50;99.90;;;;;;5090045;28;20214;-71
2021/05/20 01:00:54;;;;;;;0.20;0.20;;;10.50;99.90;;;;;;5072310;28;20164;-70
2021/05/20 01:03:22;;;;;;;0.15;0.15;;;10.50;99.90;;;;;;5090373;28;20168;-70
2021/05/20 01:05:50;;;;;;;0.10;0.10;;;10.40;99.90;;;;;;5090298;28;20228;-69
2021/05/20 01:08:16;;;;;;;0.28;0.28;;;10.40;99.90;;;;;;5090274;28;20298;-71
2021/05/20 01:10:42;;;;;;;0.15;0.15;;;10.40;99.90;;;;;;5072220;28;20175;-71
2021/05/20 01:13:08;;;;;;;0.15;0.15;;;10.30;99.90;;;;;;5072155;28;20164;-69
2021/05/20 01:15:34;;;;;;;0.20;0.20;;;10.30;99.90;;;;;;5090111;28;20179;-71
2021/05/20 01:18:02;;;;;;;0.10;0.10;;;10.30;99.90;;;;;;5071297;28;20203;-69
2021/05/20 01:20:34;;;;;;;0.45;0.45;;;10.20;99.90;;;;;;5071952;28;20175;-69
2021/05/20 01:23:12;;;;;;;0.10;0.10;;;10.20;99.90;;;;;;5072117;28;20165;-70
2021/05/20 01:25:40;;;;;;;0.10;0.10;;;10.10;99.90;;;;;;5071971;28;20236;-71
2021/05/20 01:28:12;;;;;;;0.10;0.10;;;10.10;99.90;;;;;;5071816;28;20221;-70
2021/05/20 01:30:40;;;;;;;0.10;0.10;;;10.10;99.90;;;;;;5071880;28;20172;-71
2021/05/20 01:33:06;;;;;;;0.10;0.10;;;10.10;99.90;;;;;;5089827;28;20229;-70
2021/05/20 01:35:32;;;;;;;0.00;0.00;;;10.20;99.90;;;;;;5089256;28;20161;-70
2021/05/20 01:38:49;;;;;;;0.10;0.10;;;10.30;99.90;;;;;;5089365;28;20211;-71
2021/05/20 01:40:59;;;;;;;0.10;0.10;;;10.40;99.90;;;;;;5083716;28;20250;-70
2021/05/20 01:43:26;;;;;;;0.10;0.10;;;10.30;99.90;;;;;;5089564;28;20251;-71
2021/05/20 01:45:59;;;;;;;0.10;0.10;;;10.40;99.90;;;;;;5089568;28;20160;-69
2021/05/20 01:48:27;;;;;;;1.08;0.50;;;10.30;99.90;;;;;;5089452;28;20251;-71
2021/05/20 01:50:59;;;;;;;0.10;0.10;;;10.20;99.90;;;;;;5089518;28;20160;-70
2021/05/20 01:53:25;;;;;;;0.30;0.30;;;10.20;99.90;;;;;;5089514;28;20164;-71
2021/05/20 01:55:51;;;;;;;0.68;0.68;;;10.10;99.90;;;;;;5089495;28;20557;-71
2021/05/20 01:58:17;;;;;;;0.20;0.20;;;10.10;99.90;;;;;;5088871;28;20228;-70
2021/05/20 02:00:42;;;;;;;0.20;0.20;;;10.00;99.90;;;;;;5089358;28;20156;-69
2021/05/20 02:03:08;;;;;;;0.10;0.10;;;9.90;99.90;;;;;;5089254;28;20156;-70
2021/05/20 02:05:34;;;;;;;0.10;0.10;;;9.90;99.90;;;;;;5089416;28;20155;-69
2021/05/20 02:08:00;;;;;;;0.20;0.20;;;9.70;99.90;;;;;;5089237;28;20195;-71
2021/05/20 02:10:26;;;;;;;0.10;0.10;;;9.50;99.90;;;;;;5089108;28;20214;-71
2021/05/20 02:12:52;;;;;;;0.20;0.20;;;9.50;99.90;;;;;;5095568;28;20573;-71
2021/05/20 02:15:18;;;;;;;0.35;0.35;;;9.50;99.90;;;;;;5109378;28;20290;-71
2021/05/20 02:17:44;;;;;;;0.10;0.10;;;9.40;99.90;;;;;;5109190;28;20187;-71
2021/05/20 02:20:10;;;;;;;0.10;0.10;;;9.30;99.90;;;;;;5109279;28;20155;-71
2021/05/20 02:22:37;;;;;;;0.17;0.17;;;9.30;99.90;;;;;;5109346;28;20183;-70
2021/05/20 02:25:07;;;;;;;0.20;0.20;;;9.30;99.90;;;;;;5109412;28;20162;-70
2021/05/20 02:27:33;;;;;;;0.10;0.10;;;9.20;99.90;;;;;;5109390;28;20155;-70
2021/05/20 02:29:59;;;;;;;0.20;0.20;;;9.00;99.90;;;;;;5109687;28;20692;-70
2021/05/20 02:32:25;;;;;;;0.10;0.10;;;9.10;99.90;;;;;;5113456;28;20216;-70
2021/05/20 02:34:51;;;;;;;0.17;0.17;;;9.20;99.90;;;;;;5113222;28;20155;-70
2021/05/20 02:37:17;;;;;;;0.10;0.10;;;9.10;99.90;;;;;;5112645;28;20250;-70
2021/05/20 02:39:43;;;;;;;0.10;0.10;;;9.10;99.90;;;;;;5113066;28;20205;-70
2021/05/20 02:42:09;;;;;;;0.15;0.15;;;9.20;99.90;;;;;;5113068;28;20229;-70
2021/05/20 02:44:35;;;;;;;0.10;0.10;;;9.10;99.90;;;;;;5094897;28;20173;-70
2021/05/20 02:47:01;;;;;;;0.10;0.10;;;9.10;99.90;;;;;;5113163;28;20151;-70
2021/05/20 02:49:26;;;;;;;0.20;0.20;;;9.10;99.90;;;;;;5094897;28;20644;-70
2021/05/20 02:51:52;;;;;;;0.17;0.17;;;9.20;99.90;;;;;;5113042;28;20197;-70
2021/05/20 02:54:18;;;;;;;0.10;0.10;;;9.20;99.90;;;;;;5094322;28;20202;-70
2021/05/20 02:56:44;;;;;;;0.28;0.28;;;9.20;99.90;;;;;;5094362;28;20195;-71
2021/05/20 02:59:11;;;;;;;0.43;0.43;;;9.10;99.90;;;;;;5112596;28;20155;-71
2021/05/20 03:01:43;;;;;;;0.35;0.35;;;9.00;99.90;;;;;;5112860;28;20166;-70
2021/05/20 03:04:10;;;;;;;0.10;0.10;;;9.00;99.90;;;;;;5112867;28;20187;-70
2021/05/20 03:06:36;;;;;;;0.65;0.25;;;8.90;99.90;;;;;;5112834;28;20156;-70
2021/05/20 03:09:07;;;;;;;0.10;0.10;;;8.90;99.90;;;;;;5094547;28;20167;-71
2021/05/20 03:11:33;;;;;;;0.10;0.10;;;8.90;99.90;;;;;;5112759;28;20215;-70
2021/05/20 03:13:59;;;;;;;0.10;0.10;;;8.80;99.90;;;;;;5112349;28;20199;-71
2021/05/20 03:16:25;;;;;;;0.20;0.20;;;8.70;99.90;;;;;;5094278;28;20191;-70
2021/05/20 03:18:52;;;;;;;0.10;0.10;;;8.70;99.90;;;;;;5093946;28;20171;-70
2021/05/20 03:21:18;;;;;;;0.10;0.10;;;8.60;99.90;;;;;;5112326;28;20148;-71
2021/05/20 03:23:43;;;;;;;0.10;0.10;;;8.60;99.90;;;;;;5094248;28;20234;-70
2021/05/20 03:26:09;;;;;;;0.17;0.17;;;8.60;99.90;;;;;;5112284;28;20160;-70
2021/05/20 03:28:35;;;;;;;0.10;0.10;;;8.50;99.90;;;;;;5112389;28;20166;-70
2021/05/20 03:31:02;;;;;;;0.32;0.32;;;8.60;99.90;;;;;;5112375;28;20160;-70
2021/05/20 03:33:27;;;;;;;0.57;0.55;;;8.50;99.90;;;;;;5112184;28;20285;-71
2021/05/20 03:35:56;;;;;;;0.35;0.30;;;8.60;99.90;;;;;;5111701;28;20174;-71
2021/05/20 03:38:23;;;;;;;0.20;0.20;;;8.50;99.90;;;;;;5093477;28;20187;-69
2021/05/20 03:40:49;;;;;;;0.10;0.10;;;8.50;99.90;;;;;;5111503;28;20241;-69
2021/05/20 03:43:15;;;;;;;0.10;0.10;;;8.40;99.90;;;;;;5111866;28;20278;-70
2021/05/20 03:45:41;;;;;;;1.45;0.52;;;8.60;99.90;;;;;;5111934;28;20147;-69
2021/05/20 03:48:07;;;;;;;0.10;0.10;;;8.60;99.90;;;;;;5111216;28;20171;-71
2021/05/20 03:50:32;;;;;;;0.35;0.35;;;8.60;99.90;;;;;;5111896;28;20187;-71
2021/05/20 03:52:59;;;;;;;0.10;0.10;;;8.60;99.90;;;;;;5111748;28;20195;-70
2021/05/20 03:55:26;;;;;;;0.52;0.50;;;8.70;99.90;;;;;;5111764;28;20170;-71
2021/05/20 03:57:52;;;;;;;1.02;1.00;;;8.70;99.90;;;;;;5093214;28;20195;-70
2021/05/20 04:00:18;;;;;;;0.00;0.00;;;8.80;99.90;;;;;;5111374;28;20216;-68
2021/05/20 04:02:44;;;;;;;0.10;0.10;;;8.90;99.90;;;;;;5111557;28;20270;-70
2021/05/20 04:05:11;;;;;;;0.10;0.10;;;8.90;99.90;;;;;;5093415;28;20178;-71
2021/05/20 04:07:37;;;;;;;0.10;0.10;;;9.00;99.90;;;;;;5111851;28;20619;-70
2021/05/20 04:10:03;;;;;;;0.30;0.30;;;9.20;99.90;;;;;;5111566;28;20193;-71
2021/05/20 04:12:30;;;;;;;0.10;0.10;;;9.30;99.90;;;;;;5111397;28;20214;-71
2021/05/20 04:14:55;;;;;;;0.20;0.20;;;9.50;99.90;;;;;;5093206;28;20171;-71
2021/05/20 04:17:21;;;;;;;0.68;0.68;;;9.60;99.90;;;;;;5111216;28;20251;-70
2021/05/20 04:19:47;;;;;;;0.17;0.17;;;9.70;99.90;;;;;;5092617;28;20234;-70
2021/05/20 04:22:13;;;;;;;0.65;0.65;;;9.80;99.90;;;;;;5092709;28;20176;-70
2021/05/20 04:24:39;;;;;;;0.13;0.13;;;10.00;99.90;;;;;;5092926;28;20239;-69
2021/05/20 04:27:05;;;;;;;0.10;0.10;;;10.50;99.90;;;;;;5110491;28;20178;-70
2021/05/20 04:29:32;;;;;;;1.23;1.15;;;11.10;99.90;;;;;;5110965;28;20163;-70
2021/05/20 04:31:58;;;;;;;0.10;0.10;;;11.20;99.90;;;;;;5092759;28;20210;-71
2021/05/20 04:34:24;;;;;;;0.20;0.20;;;11.40;99.90;;;;;;5092663;28;20563;-70
2021/05/20 04:36:50;;;;;;;0.52;0.52;;;11.70;99.90;;;;;;5110283;28;20214;-70
2021/05/20 04:39:15;;;;;;;0.20;0.20;;;11.80;99.90;;;;;;5110489;28;20167;-70
2021/05/20 04:41:42;;;;;;;0.13;0.13;;;11.60;99.90;;;;;;5110646;28;20215;-70
2021/05/20 04:44:08;;;;;;;0.20;0.20;;;11.80;99.90;;;;;;5110710;28;20183;-70
2021/05/20 04:46:35;;;;;;;0.10;0.10;;;12.30;99.90;;;;;;5110842;28;20179;-70
2021/05/20 04:49:11;;;;;;;0.15;0.15;;;12.70;99.90;;;;;;5110791;28;20151;-70
2021/05/20 04:51:39;;;;;;;0.63;0.63;;;12.90;99.90;;;;;;5110786;28;20155;-71
2021/05/20 04:54:06;;;;;;;0.40;0.40;;;13.30;99.90;;;;;;5109739;28;20191;-70
2021/05/20 04:56:32;;;;;;;0.45;0.45;;;13.60;99.90;;;;;;5092506;28;20177;-70
2021/05/20 04:58:58;;;;;;;0.10;0.10;;;13.60;99.90;;;;;;5110113;28;20198;-70
2021/05/20 05:01:24;;;;;;;0.32;0.32;;;13.40;99.90;;;;;;5110472;28;20148;-70
2021/05/20 05:03:50;;;;;;;0.15;0.15;;;13.50;99.90;;;;;;5110132;28;20639;-70
2021/05/20 05:06:16;;;;;;;0.10;0.10;;;13.70;99.90;;;;;;5109989;28;20168;-70
2021/05/20 05:08:41;;;;;;;0.10;0.10;;;14.10;99.90;;;;;;5092017;28;20171;-70
2021/05/20 05:11:07;;;;;;;0.10;0.10;;;14.60;99.90;;;;;;5109971;28;20213;-70
2021/05/20 05:13:33;;;;;;;0.10;0.10;;;15.10;99.90;;;;;;5110027;28;20195;-69
2021/05/20 05:15:59;;;;;;;19.38;0.45;;;16.00;99.90;;;;;;5110143;28;20185;-70
2021/05/20 05:18:26;;;;;;;0.10;0.10;;;16.50;99.90;;;;;;5109939;28;20572;-70
2021/05/20 05:20:52;;;;;;;0.10;0.10;;;16.60;99.90;;;;;;5109403;28;20163;-70
2021/05/20 05:23:20;;;;;;;0.10;0.10;;;17.30;99.90;;;;;;5109859;28;20265;-71
2021/05/20 05:25:49;;;;;;;0.00;0.00;;;18.40;99.90;;;;;;5091505;28;20242;-70
2021/05/20 05:28:15;;;;;;;0.10;0.10;;;18.80;99.90;;;;;;5110051;28;20220;-70
2021/05/20 05:30:42;;;;;;;0.22;0.22;;;18.40;99.90;;;;;;5109901;28;20186;-70
2021/05/20 05:33:08;;;;;;;0.20;0.20;;;18.40;99.90;;;;;;5091540;28;20228;-70
2021/05/20 05:35:34;;;;;;;0.75;0.65;;;19.60;99.90;;;;;;5109280;28;20159;-70
2021/05/20 05:38:00;;;;;;;0.00;0.00;;;19.80;99.90;;;;;;5109623;28;20528;-70
2021/05/20 05:40:26;;;;;;;0.25;0.08;;;19.60;99.90;;;;;;5109258;28;20243;-71
2021/05/20 05:42:51;;;;;;;0.15;0.10;;;19.50;99.90;;;;;;5109794;28;20190;-70
2021/05/20 05:45:18;;;;;;;0.85;0.32;;;18.80;99.90;;;;;;5109840;28;20182;-70
2021/05/20 05:47:44;;;;;;;0.10;0.10;;;19.10;99.90;;;;;;5108736;28;20197;-70
2021/05/20 05:50:12;;;;;;;0.10;0.10;;;20.10;99.90;;;;;;5091340;28;20179;-70
2021/05/20 05:52:39;;;;;;;0.43;0.20;;;19.90;99.90;;;;;;5109480;28;20250;-70
2021/05/20 05:55:06;;;;;;;0.10;0.10;;;19.90;99.90;;;;;;5091446;28;20663;-70
2021/05/20 05:57:32;;;;;;;0.28;0.28;;;19.70;99.90;;;;;;5109371;28;20195;-71
2021/05/20 05:59:58;;;;;;;1.17;0.45;;;20.30;99.90;;;;;;5108940;28;20155;-70
2021/05/20 06:02:25;;;;;;;0.15;0.15;;;20.10;99.90;;;;;;5109262;28;20194;-70
2021/05/20 06:04:52;;;;;;;9.13;0.30;;;20.40;99.90;;;;;;5091475;28;20166;-69
2021/05/20 06:07:19;;;;;;;0.00;0.00;;;19.10;99.90;;;;;;5109605;28;20646;-70
2021/05/20 06:09:45;;;;;;;0.10;0.10;;;17.20;99.90;;;;;;5109478;28;20176;-70
2021/05/20 06:12:12;;;;;;;0.10;0.10;;;16.80;99.90;;;;;;5109186;28;20187;-71
2021/05/20 06:14:40;;;;;;;0.03;0.03;;;17.20;99.90;;;;;;5107939;28;20167;-69
2021/05/20 06:17:09;;;;;;;0.10;0.10;;;17.40;99.90;;;;;;5107697;28;20286;-69
2021/05/20 06:19:35;;;;;;;0.10;0.10;;;16.80;99.90;;;;;;5107460;28;20183;-69
2021/05/20 06:22:01;;;;;;;0.20;0.20;;;16.70;99.90;;;;;;5107132;28;20155;-70
2021/05/20 06:24:27;;;;;;;0.10;0.10;;;15.90;99.90;;;;;;5108054;28;20171;-70
2021/05/20 06:26:53;;;;;;;0.00;0.00;;;15.60;99.90;;;;;;5089967;28;20159;-70
2021/05/20 06:29:19;;;;;;;0.10;0.10;;;15.20;99.90;;;;;;5089886;28;20221;-70
2021/05/20 06:31:45;;;;;;;0.10;0.10;;;15.20;99.90;;;;;;5109246;28;20163;-69
2021/05/20 06:34:11;;;;;;;0.10;0.10;;;15.30;99.90;;;;;;5109104;28;20174;-70
2021/05/20 06:36:37;;;;;;;0.10;0.10;;;16.00;99.90;;;;;;5108592;28;20160;-68
2021/05/20 06:39:08;;;;;;;0.20;0.20;;;16.20;99.90;;;;;;5090673;28;20195;-70
2021/05/20 06:41:34;;;;;;;0.20;0.20;;;16.30;99.90;;;;;;5087185;28;20265;-70
2021/05/20 06:44:00;;;;;;;0.00;0.00;;;16.60;99.90;;;;;;5088732;28;20175;-70
2021/05/20 06:46:26;;;;;;;0.10;0.10;;;16.30;99.90;;;;;;5088765;28;20152;-69
2021/05/20 06:48:54;;;;;;;0.20;0.20;;;16.40;99.90;;;;;;5088775;28;20194;-70
2021/05/20 06:51:20;;;;;;;0.10;0.10;;;16.80;99.90;;;;;;5088689;28;20198;-70
2021/05/20 06:53:47;;;;;;;0.10;0.10;;;17.20;99.90;;;;;;5088713;28;20556;-69
2021/05/20 06:56:18;;;;;;;0.10;0.10;;;16.90;99.90;;;;;;5088758;28;20156;-70
2021/05/20 07:01:28;;;;;;;0.00;0.00;;;17.70;99.90;;;;;;5088202;28;20159;-70
2021/05/20 07:03:54;;;;;;;0.10;0.10;;;18.90;99.90;;;;;;5087326;28;20164;-69
2021/05/20 07:06:20;;;;;;;0.10;0.10;;;19.50;99.90;;;;;;5088623;28;20156;-69
2021/05/20 07:08:45;;;;;;;0.00;0.00;;;20.20;99.90;;;;;;5087129;28;20229;-70
2021/05/20 07:11:11;;;;;;;0.10;0.10;;;19.40;99.90;;;;;;5088635;28;20164;-70
2021/05/20 07:13:37;;;;;;;0.10;0.10;;;19.70;99.90;;;;;;5088482;28;20164;-69
2021/05/20 07:16:03;;;;;;;0.10;0.10;;;19.90;99.90;;;;;;5088754;28;20164;-70
2021/05/20 07:18:29;;;;;;;0.10;0.10;;;18.50;99.90;;;;;;5091851;28;20208;-69
2021/05/20 07:20:55;;;;;;;0.10;0.10;;;18.30;99.90;;;;;;5091800;28;20174;-69
2021/05/20 07:23:21;;;;;;;0.10;0.10;;;18.90;99.90;;;;;;5092243;28;20163;-69
2021/05/20 07:25:47;;;;;;;0.08;0.08;;;19.50;99.90;;;;;;5092136;28;20163;-69
2021/05/20 07:28:13;;;;;;;0.00;0.00;;;21.30;99.90;;;;;;5092113;28;20164;-70
2021/05/20 07:30:39;;;;;;;0.60;0.43;;;21.70;99.90;;;;;;5092044;28;20161;-70
2021/05/20 07:33:06;;;;;;;0.00;0.00;;;21.40;99.90;;;;;;5091990;28;20620;-70
2021/05/20 07:35:32;;;;;;;0.03;0.03;;;20.10;99.90;;;;;;5090069;28;20186;-69
2021/05/20 07:37:57;;;;;;;0.17;0.17;;;18.80;99.90;;;;;;5091891;28;20187;-70
2021/05/20 07:40:23;;;;;;;0.10;0.10;;;18.40;99.90;;;;;;5090008;28;20225;-70
2021/05/20 07:42:49;;;;;;;0.10;0.10;;;17.70;99.90;;;;;;5111876;28;20215;-70
2021/05/20 07:45:16;;;;;;;0.10;0.10;;;15.70;99.90;;;;;;5112229;28;20223;-70
2021/05/20 07:47:44;;;;;;;0.20;0.20;;;15.00;99.90;;;;;;5093880;28;20192;-70
2021/05/20 07:50:11;;;;;;;0.20;0.20;;;14.90;99.90;;;;;;5111805;28;20191;-71
2021/05/20 07:52:37;;;;;;;0.20;0.20;;;15.70;99.90;;;;;;5112075;28;20167;-70
2021/05/20 07:55:04;;;;;;;0.10;0.10;;;16.80;99.90;;;;;;5111723;28;20159;-70
2021/05/20 07:57:30;;;;;;;0.10;0.10;;;16.70;99.90;;;;;;5111937;28;20187;-70
2021/05/20 07:59:56;;;;;;;0.10;0.10;;;16.60;99.90;;;;;;5111499;28;20191;-69
2021/05/20 08:04:54;;;;;;;0.90;0.35;;;16.20;99.90;;;;;;5111766;28;20168;-69
2021/05/20 08:07:30;;;;;;;0.10;0.10;;;16.60;99.90;;;;;;5111806;28;20208;-70
2021/05/20 08:10:25;;;;;;;0.10;0.10;;;17.70;99.90;;;;;;5111353;28;20246;-70
2021/05/20 08:12:51;;;;;;;0.32;0.32;;;18.30;99.90;;;;;;5111073;28;20152;-71
2021/05/20 08:15:18;;;;;;;0.00;0.00;;;17.40;99.90;;;;;;5110936;28;20170;-70
2021/05/20 08:17:43;;;;;;;0.10;0.10;;;16.20;99.90;;;;;;5092721;28;20222;-70
2021/05/20 08:20:10;;;;;;;0.10;0.10;;;16.50;99.90;;;;;;5110883;28;20191;-70
2021/05/20 08:22:38;;;;;;;0.10;0.10;;;17.20;99.90;;;;;;5111172;28;20151;-70
2021/05/20 08:25:07;;;;;;;0.10;0.10;;;18.80;99.90;;;;;;5092987;28;20244;-70
2021/05/20 08:27:33;;;;;;;0.10;0.10;;;19.60;99.90;;;;;;5110552;28;20530;-70
2021/05/20 08:30:00;;;;;;;0.00;0.00;;;19.70;99.90;;;;;;5110872;28;20190;-71
2021/05/20 08:32:26;;;;;;;0.10;0.10;;;20.00;99.90;;;;;;5111105;28;20165;-68
2021/05/20 08:34:52;;;;;;;0.10;0.10;;;19.70;99.90;;;;;;5111249;28;20158;-69
2021/05/20 08:37:19;;;;;;;0.10;0.10;;;19.50;99.90;;;;;;5092222;28;20257;-70
2021/05/20 08:39:45;;;;;;;0.10;0.10;;;19.30;99.90;;;;;;5110675;28;20246;-68
2021/05/20 08:42:10;;;;;;;0.10;0.10;;;18.10;99.90;;;;;;5110432;28;20223;-69
2021/05/20 08:44:36;;;;;;;0.08;0.08;;;17.90;99.90;;;;;;5111066;28;20186;-70
2021/05/20 08:47:02;;;;;;;0.10;0.10;;;17.90;99.90;;;;;;5110983;28;20250;-70
2021/05/20 08:49:28;;;;;;;0.10;0.10;;;19.00;99.90;;;;;;5110961;28;20191;-70
2021/05/20 08:51:54;;;;;;;0.00;0.00;;;20.10;99.90;;;;;;5111025;28;20187;-70
2021/05/20 08:54:21;;;;;;;0.00;0.00;;;18.30;99.90;;;;;;5110754;28;20167;-70
2021/05/20 08:56:52;;;;;;;0.20;0.20;;;18.00;99.90;;;;;;5092677;28;20164;-71
2021/05/20 08:59:19;;;;;;;0.10;0.10;;;17.70;99.90;;;;;;5110427;28;20190;-71
2021/05/20 09:01:45;;;;;;;0.20;0.20;;;17.50;99.90;;;;;;5110319;28;20155;-70
2021/05/20 09:04:11;;;;;;;0.05;0.05;;;18.00;99.90;;;;;;5110718;28;20161;-71
2021/05/20 09:06:43;;;;;;;0.10;0.10;;;18.60;99.90;;;;;;5092208;28;20228;-70
2021/05/20 09:09:22;;;;;;;0.10;0.10;;;18.50;99.90;;;;;;5110405;28;20191;-70
2021/05/20 09:11:53;;;;;;;0.40;0.30;;;18.30;99.90;;;;;;5110813;28;20158;-69
2021/05/20 09:14:30;;;;;;;0.20;0.20;;;18.30;99.90;;;;;;5110278;28;20619;-70
2021/05/20 09:17:17;;;;;;;2.83;0.45;;;16.80;99.90;;;;;;5110107;28;20202;-70
2021/05/20 09:19:47;;;;;;;0.10;0.10;;;16.60;99.90;;;;;;5110166;28;20183;-70
2021/05/20 09:22:14;;;;;;;0.10;0.10;;;16.90;99.90;;;;;;5109719;28;20357;-70
2021/05/20 09:24:50;;;;;;;0.10;0.10;;;16.70;99.90;;;;;;5110095;28;20178;-68
2021/05/20 09:27:27;;;;;;;0.10;0.10;;;16.50;99.90;;;;;;5092066;28;20166;-70
2021/05/20 09:30:10;;;;;;;0.10;0.10;;;16.80;99.90;;;;;;5110126;28;20195;-70
2021/05/20 09:32:58;;;;;;;0.10;0.10;;;17.00;99.90;;;;;;5109872;28;20251;-70
2021/05/20 09:35:33;;;;;;;0.43;0.43;;;17.10;99.90;;;;;;5108995;28;20174;-70
2021/05/20 09:38:01;;;;;;;0.20;0.10;;;17.70;99.90;;;;;;5109130;28;20193;-70
2021/05/20 09:40:34;;;;;;;0.20;0.10;;;17.90;99.90;;;;;;5108661;28;20238;-71
2021/05/20 09:43:00;;;;;;;0.10;0.10;;;18.20;99.90;;;;;;5107263;28;20179;-70
2021/05/20 09:45:28;;;;;;;0.10;0.10;;;18.10;99.90;;;;;;5098080;28;20171;-70
2021/05/20 09:48:06;;;;;;;0.10;0.10;;;18.80;99.90;;;;;;5100235;28;20174;-71
2021/05/20 09:50:37;;;;;;;0.10;0.10;;;20.10;99.90;;;;;;5091565;28;20178;-70
2021/05/20 09:53:08;;;;;;;0.00;0.00;;;19.20;99.90;;;;;;5091351;28;20160;-71
2021/05/20 09:55:34;;;;;;;0.20;0.20;;;21.10;99.90;;;;;;5089324;28;20174;-70
2021/05/20 09:58:09;;;;;;;0.10;0.10;;;21.00;99.90;;;;;;5071248;28;20192;-70
2021/05/20 10:00:36;;;;;;;0.10;0.10;;;19.90;99.90;;;;;;5098357;28;20163;-71
2021/05/20 10:03:08;;;;;;;0.10;0.10;;;19.10;99.90;;;;;;5109373;28;20204;-70
2021/05/20 10:05:42;;;;;;;0.00;0.00;;;20.10;99.90;;;;;;5109268;28;20151;-70
2021/05/20 10:08:14;;;;;;;0.10;0.10;;;20.30;99.90;;;;;;5109391;28;20218;-71
2021/05/20 10:10:42;;;;;;;0.10;0.10;;;19.50;99.90;;;;;;5109249;28;20162;-71
2021/05/20 10:13:14;;;;;;;0.00;0.00;;;19.60;99.90;;;;;;5109317;28;20489;-70
2021/05/20 10:15:40;;;;;;;0.00;0.00;;;18.50;99.90;;;;;;5091077;28;20163;-72
2021/05/20 10:18:09;;;;;;;0.10;0.10;;;17.40;99.90;;;;;;5095295;28;20188;-70
2021/05/20 10:20:36;;;;;;;0.20;0.20;;;17.40;99.90;;;;;;5089061;28;20153;-70
2021/05/20 10:23:10;;;;;;;15.38;0.40;;;17.20;99.90;;;;;;5070976;28;20191;-70
2021/05/20 10:25:37;;;;;;;0.35;0.35;;;17.30;99.90;;;;;;5088856;28;20182;-70
2021/05/20 10:28:08;;;;;;;0.10;0.10;;;16.90;99.90;;;;;;5088984;28;20168;-70
2021/05/20 10:30:35;;;;;;;0.10;0.10;;;16.60;99.90;;;;;;5088996;28;20160;-70
2021/05/20 10:33:01;;;;;;;0.00;0.00;;;17.00;99.90;;;;;;5088925;28;20156;-70
2021/05/20 10:35:58;;;;;;;0.10;0.10;;;17.70;99.90;;;;;;5088175;28;20166;-71
2021/05/20 10:38:32;;;;;;;0.00;0.00;;;18.30;99.90;;;;;;5088879;28;20211;-71
2021/05/20 10:41:20;;;;;;;0.00;0.00;;;19.80;99.90;;;;;;5068993;28;20226;-71
2021/05/20 10:43:51;;;;;;;0.00;0.00;;;21.20;99.90;;;;;;5088624;28;20193;-71
2021/05/20 10:46:19;;;;;;;0.00;0.00;;;21.30;99.90;;;;;;5088592;28;20147;-68
2021/05/20 10:48:55;;;;;;;0.00;0.00;;;18.40;99.90;;;;;;5088572;28;20197;-71
2021/05/20 10:51:27;;;;;;;0.10;0.10;;;17.60;99.90;;;;;;5095841;28;20162;-71
2021/05/20 10:53:54;;;;;;;0.10;0.10;;;18.60;99.90;;;;;;5113096;28;20167;-71
2021/05/20 10:56:23;;;;;;;0.17;0.17;;;18.60;99.90;;;;;;5094814;28;20179;-70
2021/05/20 10:58:51;;;;;;;0.10;0.10;;;19.60;99.90;;;;;;5113010;28;20203;-70
2021/05/20 11:01:26;;;;;;;0.00;0.00;;;18.30;99.90;;;;;;5112512;28;20155;-70
2021/05/20 11:03:54;;;;;;;0.13;0.13;;;18.50;99.90;;;;;;5112555;28;20163;-71
2021/05/20 11:06:35;;;;;;;0.10;0.10;;;18.20;99.90;;;;;;5112816;28;20247;-70
2021/05/20 11:09:02;;;;;;;0.05;0.05;;;17.80;99.90;;;;;;5112504;28;20668;-71
2021/05/20 11:11:31;;;;;;;0.10;0.10;;;18.00;99.90;;;;;;5112850;28;20152;-69
2021/05/20 11:13:57;;;;;;;0.47;0.47;;;18.60;99.90;;;;;;5112741;28;20674;-70
2021/05/20 11:16:37;;;;;;;0.10;0.10;;;19.00;99.90;;;;;;5112453;28;20164;-70
2021/05/20 11:19:23;;;;;;;0.10;0.10;;;18.90;99.90;;;;;;5112509;28;20195;-69
2021/05/20 11:21:55;;;;;;;0.10;0.10;;;17.50;99.90;;;;;;5101763;28;20777;-69
2021/05/20 11:24:22;;;;;;;0.05;0.05;;;17.20;99.90;;;;;;5112540;28;20576;-71
2021/05/20 11:26:58;;;;;;;5.22;1.95;;;16.80;99.90;;;;;;5112455;28;20175;-70
2021/05/20 11:29:26;;;;;;;0.10;0.10;;;16.50;99.90;;;;;;5112459;28;20183;-70
2021/05/20 11:32:04;;;;;;;0.22;0.22;;;16.40;99.90;;;;;;5094055;28;20171;-70
2021/05/20 11:37:05;;;;;;;0.00;0.00;;;19.00;99.90;;;;;;5111750;28;20186;-69
2021/05/20 11:39:31;;;;;;;0.10;0.10;;;18.40;99.90;;;;;;5111798;28;20198;-69
2021/05/20 11:41:59;;;;;;;0.10;0.10;;;18.70;99.90;;;;;;5111306;28;20202;-70
2021/05/20 11:44:27;;;;;;;0.20;0.20;;;19.10;99.90;;;;;;5110496;28;20247;-68
2021/05/20 11:47:07;;;;;;;0.10;0.10;;;18.70;99.90;;;;;;5091214;28;20663;-70
2021/05/20 11:49:34;;;;;;;0.10;0.10;;;19.10;99.90;;;;;;5111533;28;20190;-71
2021/05/20 11:52:03;;;;;;;0.10;0.10;;;19.80;99.90;;;;;;5093171;28;20255;-69
2021/05/20 11:54:34;;;;;;;0.05;0.05;;;18.80;99.90;;;;;;5111337;28;20158;-70
2021/05/20 11:57:03;;;;;;;0.10;0.10;;;19.40;99.90;;;;;;5111689;28;20155;-70
2021/05/20 11:59:38;;;;;;;0.20;0.20;;;19.30;99.90;;;;;;5093466;28;20190;-68
2021/05/20 12:02:05;;;;;;;0.05;0.05;;;20.40;99.90;;;;;;5093039;28;20580;-70
2021/05/20 12:04:32;;;;;;;2.28;0.90;;;19.70;99.90;;;;;;5093510;28;20230;-70
2021/05/20 12:06:59;;;;;;;0.08;0.08;;;19.80;99.90;;;;;;5093444;28;20541;-70
2021/05/20 12:09:25;;;;;;;0.55;0.40;;;19.10;99.90;;;;;;5111396;28;20190;-70
2021/05/20 12:11:51;;;;;;;0.10;0.10;;;18.40;99.90;;;;;;5111655;28;20152;-71
2021/05/20 12:14:31;;;;;;;0.08;0.08;;;17.70;99.90;;;;;;5111520;28;20155;-70
2021/05/20 12:17:10;;;;;;;0.20;0.20;;;17.40;99.90;;;;;;5111449;28;20152;-68
2021/05/20 12:20:02;;;;;;;0.10;0.10;;;17.50;99.90;;;;;;5111518;28;20194;-68
2021/05/20 12:22:30;;;;;;;0.00;0.00;;;17.10;99.90;;;;;;5108768;28;20207;-70
2021/05/20 12:25:03;;;;;;;0.10;0.10;;;17.10;99.90;;;;;;5111299;28;20664;-68
2021/05/20 12:27:35;;;;;;;0.10;0.10;;;17.50;99.90;;;;;;5111318;28;20638;-70
2021/05/20 12:30:05;;;;;;;0.15;0.15;;;17.10;99.90;;;;;;5110964;28;20191;-69
2021/05/20 12:32:40;;;;;;;0.10;0.10;;;17.10;99.90;;;;;;5110905;28;20160;-69
2021/05/20 12:35:29;;;;;;;0.52;0.30;;;16.60;99.90;;;;;;5110983;28;20159;-69
2021/05/20 12:38:06;;;;;;;0.10;0.10;;;17.10;99.90;;;;;;5110838;28;20263;-69
2021/05/20 12:40:32;;;;;;;0.10;0.10;;;17.20;99.90;;;;;;5110729;28;20158;-69
2021/05/20 12:43:03;;;;;;;0.10;0.10;;;17.10;99.90;;;;;;5110630;28;20211;-70
2021/05/20 12:45:35;;;;;;;0.00;0.00;;;17.30;99.90;;;;;;5111039;28;20167;-70
2021/05/20 12:48:01;;;;;;;10.23;0.52;;;17.20;99.90;;;;;;5110790;28;20175;-69
2021/05/20 12:50:37;;;;;;;0.10;0.10;;;17.40;99.90;;;;;;5092764;28;20254;-70
2021/05/20 12:53:03;;;;;;;0.10;0.10;;;17.50;99.90;;;;;;5072354;28;20183;-69
2021/05/20 12:55:51;;;;;;;0.20;0.20;;;17.00;99.90;;;;;;5072587;28;20255;-70
2021/05/20 12:58:17;;;;;;;0.10;0.10;;;17.40;99.90;;;;;;5072056;28;20250;-69
2021/05/20 13:00:58;;;;;;;1.67;0.85;;;17.70;99.90;;;;;;5089986;28;20161;-70
2021/05/20 13:03:47;;;;;;;1.23;0.85;;;17.90;99.90;;;;;;5089887;28;20182;-68